createdAt,value
2018-01-04T00:00:41.020Z,19.77
2018-01-04T00:01:09.847Z,19.81
2018-01-04T00:01:52.427Z,19.74
2018-01-04T00:02:59.440Z,19.84
2018-01-04T00:03:28.480Z,19.83
2018-01-04T00:04:11.551Z,19.81
2018-01-04T00:04:41.288Z,19.78
2018-01-04T00:05:09.874Z,19.84
2018-01-04T00:05:39.138Z,19.83
2018-01-04T00:06:08.657Z,19.84
2018-01-04T00:06:36.668Z,19.83
2018-01-04T00:07:05.766Z,19.83
2018-01-04T00:07:34.257Z,19.8
2018-01-04T00:08:17.694Z,19.81
2018-01-04T00:08:47.133Z,19.84
2018-01-04T00:09:30.223Z,19.76
2018-01-04T00:09:58.237Z,19.86
2018-01-04T00:10:41.221Z,19.92
2018-01-04T00:11:09.270Z,19.84
2018-01-04T00:11:37.231Z,19.88
2018-01-04T00:12:06.849Z,19.87
2018-01-04T00:12:49.975Z,19.88
2018-01-04T00:13:18.608Z,19.84
2018-01-04T00:14:30.049Z,19.81
2018-01-04T00:15:13.952Z,19.86
2018-01-04T00:15:42.999Z,19.86
2018-01-04T00:16:11.330Z,19.87
2018-01-04T00:16:53.935Z,19.8
2018-01-04T00:17:22.362Z,19.84
2018-01-04T00:17:50.393Z,19.8
2018-01-04T00:18:19.420Z,19.83
2018-01-04T00:18:49.171Z,19.84
2018-01-04T00:20:00.150Z,19.87
2018-01-04T00:21:27.637Z,19.8
2018-01-04T00:21:56.089Z,19.84
2018-01-04T00:22:26.030Z,19.71
2018-01-04T00:22:54.261Z,19.76
2018-01-04T00:23:23.503Z,19.76
2018-01-04T00:23:51.970Z,19.8
2018-01-04T00:24:20.033Z,19.8
2018-01-04T00:24:48.068Z,19.69
2018-01-04T00:25:31.264Z,19.77
2018-01-04T00:25:59.291Z,19.8
2018-01-04T00:26:27.729Z,19.78
2018-01-04T00:27:24.822Z,19.84
2018-01-04T00:27:52.820Z,19.81
2018-01-04T00:28:35.804Z,19.87
2018-01-04T00:29:35.686Z,19.91
2018-01-04T00:30:03.905Z,19.95
2018-01-04T00:31:01.365Z,19.95
2018-01-04T00:31:29.754Z,19.95
2018-01-04T00:31:59.112Z,19.92
2018-01-04T00:32:27.966Z,19.94
2018-01-04T00:32:57.588Z,19.88
2018-01-04T00:33:25.807Z,19.92
2018-01-04T00:33:54.252Z,19.88
2018-01-04T00:34:22.527Z,19.81
2018-01-04T00:34:52.652Z,19.81
2018-01-04T00:35:20.941Z,19.83
2018-01-04T00:35:50.189Z,19.91
2018-01-04T00:36:33.682Z,19.83
2018-01-04T00:37:03.013Z,19.94
2018-01-04T00:37:30.930Z,19.81
2018-01-04T00:37:59.399Z,19.96
2018-01-04T00:38:27.588Z,19.91
2018-01-04T00:38:58.852Z,20.03
2018-01-04T00:39:27.748Z,19.88
2018-01-04T00:39:56.333Z,19.94
2018-01-04T00:40:24.393Z,19.94
2018-01-04T00:40:52.417Z,19.91
2018-01-04T00:42:32.893Z,19.91
2018-01-04T00:43:02.609Z,19.94
2018-01-04T00:43:30.934Z,19.83
2018-01-04T00:44:01.424Z,19.81
2018-01-04T00:44:59.708Z,19.86
2018-01-04T00:45:28.028Z,19.88
2018-01-04T00:45:56.036Z,19.8
2018-01-04T00:46:25.626Z,19.88
2018-01-04T00:46:54.433Z,19.8
2018-01-04T00:47:23.256Z,19.87
2018-01-04T00:47:53.123Z,19.88
2018-01-04T00:48:35.930Z,19.88
2018-01-04T00:49:05.690Z,19.87
2018-01-04T00:49:34.467Z,19.86
2018-01-04T00:50:04.718Z,19.87
2018-01-04T00:50:33.180Z,19.88
2018-01-04T00:52:46.250Z,19.87
2018-01-04T00:53:15.409Z,19.86
2018-01-04T00:53:43.434Z,19.83
2018-01-04T00:54:12.123Z,19.84
2018-01-04T00:54:40.146Z,19.86
2018-01-04T00:55:08.187Z,19.84
2018-01-04T00:55:36.620Z,19.8
2018-01-04T00:56:05.813Z,19.92
2018-01-04T00:56:34.504Z,19.86
2018-01-04T00:57:03.103Z,19.91
2018-01-04T00:57:31.527Z,19.95
2018-01-04T00:58:01.063Z,19.84
2018-01-04T00:58:29.634Z,19.91
2018-01-04T00:58:58.094Z,19.92
2018-01-04T00:59:26.543Z,19.8
2018-01-04T01:00:24.025Z,19.86
2018-01-04T01:00:52.408Z,19.86
2018-01-04T01:01:21.438Z,19.94
2018-01-04T01:01:52.518Z,19.94
2018-01-04T01:02:20.968Z,19.92
2018-01-04T01:02:49.436Z,19.91
2018-01-04T01:03:17.466Z,19.91
2018-01-04T01:04:15.732Z,19.91
2018-01-04T01:04:44.223Z,19.95
2018-01-04T01:05:12.693Z,19.92
2018-01-04T01:07:11.126Z,19.98
2018-01-04T01:08:22.998Z,20.05
2018-01-04T01:08:51.955Z,20.13
2018-01-04T01:09:19.895Z,20.1
2018-01-04T01:09:52.738Z,20.08
2018-01-04T01:10:21.760Z,20.08
2018-01-04T01:11:20.643Z,19.94
2018-01-04T01:11:51.625Z,20.06
2018-01-04T01:12:19.655Z,20.06
2018-01-04T01:13:30.696Z,19.96
2018-01-04T01:13:59.320Z,19.96
2018-01-04T01:14:28.119Z,19.95
2018-01-04T01:14:57.402Z,20.05
2018-01-04T01:16:09.779Z,19.96
2018-01-04T01:16:38.705Z,19.96
2018-01-04T01:17:07.125Z,20.05
2018-01-04T01:17:36.443Z,20.06
2018-01-04T01:18:20.353Z,20.02
2018-01-04T01:18:49.675Z,20.1
2018-01-04T01:21:30.606Z,20.1
2018-01-04T01:22:00.330Z,20.02
2018-01-04T01:22:28.244Z,20.18
2018-01-04T01:23:10.794Z,20.14
2018-01-04T01:23:39.853Z,20.18
2018-01-04T01:24:07.902Z,20.02
2018-01-04T01:24:36.357Z,20.05
2018-01-04T01:25:06.637Z,20.1
2018-01-04T01:25:49.985Z,20.05
2018-01-04T01:27:16.539Z,19.94
2018-01-04T01:27:44.996Z,20.03
2018-01-04T01:28:13.390Z,19.94
2018-01-04T01:28:41.426Z,19.99
2018-01-04T01:29:09.431Z,19.95
2018-01-04T01:29:37.431Z,19.83
2018-01-04T01:30:05.453Z,19.87
2018-01-04T01:30:34.344Z,19.84
2018-01-04T01:31:17.551Z,19.84
2018-01-04T01:31:45.573Z,19.78
2018-01-04T01:33:11.591Z,19.76
2018-01-04T01:33:39.620Z,19.69
2018-01-04T01:37:02.117Z,19.8
2018-01-04T01:37:30.577Z,19.8
2018-01-04T01:37:58.616Z,19.86
2018-01-04T01:38:41.902Z,19.83
2018-01-04T01:39:10.623Z,19.83
2018-01-04T01:39:53.607Z,19.83
2018-01-04T01:40:21.524Z,19.81
2018-01-04T01:40:49.545Z,19.94
2018-01-04T01:42:30.181Z,19.96
2018-01-04T01:43:15.181Z,19.98
2018-01-04T01:43:59.174Z,19.96
2018-01-04T01:44:27.638Z,19.94
2018-01-04T01:45:11.180Z,19.91
2018-01-04T01:45:40.665Z,19.92
2018-01-04T01:46:09.597Z,19.94
2018-01-04T01:46:37.617Z,19.96
2018-01-04T01:47:06.318Z,19.92
2018-01-04T01:48:18.172Z,19.99
2018-01-04T01:48:47.873Z,19.92
2018-01-04T01:49:18.193Z,19.96
2018-01-04T01:49:46.441Z,19.95
2018-01-04T01:50:15.793Z,19.92
2018-01-04T01:50:59.692Z,19.92
2018-01-04T01:51:28.646Z,19.92
2018-01-04T01:52:11.948Z,19.83
2018-01-04T01:52:40.950Z,19.87
2018-01-04T01:53:52.286Z,19.87
2018-01-04T01:54:20.739Z,19.81
2018-01-04T01:55:33.903Z,19.81
2018-01-04T01:56:31.524Z,19.78
2018-01-04T01:56:59.564Z,19.81
2018-01-04T01:57:28.546Z,19.81
2018-01-04T01:57:57.318Z,19.78
2018-01-04T01:58:25.269Z,19.81
2018-01-04T01:58:53.746Z,19.8
2018-01-04T01:59:26.105Z,19.8
2018-01-04T01:59:55.459Z,19.8
2018-01-04T02:00:24.289Z,19.78
2018-01-04T02:01:08.500Z,19.81
2018-01-04T02:01:36.886Z,19.78
2018-01-04T02:03:02.774Z,19.68
2018-01-04T02:04:43.845Z,19.69
2018-01-04T02:05:12.723Z,19.69
2018-01-04T02:05:41.018Z,19.73
2018-01-04T02:06:09.822Z,19.74
2018-01-04T02:06:38.225Z,19.66
2018-01-04T02:07:06.232Z,19.65
2018-01-04T02:07:48.779Z,19.65
2018-01-04T02:08:18.375Z,19.58
2018-01-04T02:09:44.290Z,19.54
2018-01-04T02:10:13.657Z,19.61
2018-01-04T02:10:43.215Z,19.63
2018-01-04T02:11:11.594Z,19.59
2018-01-04T02:11:40.042Z,19.56
2018-01-04T02:12:52.042Z,19.65
2018-01-04T02:13:20.575Z,19.55
2018-01-04T02:13:49.438Z,19.55
2018-01-04T02:14:33.187Z,19.63
2018-01-04T02:15:01.829Z,19.63
2018-01-04T02:15:30.419Z,19.48
2018-01-04T02:15:58.838Z,19.59
2018-01-04T02:16:29.603Z,19.54
2018-01-04T02:16:57.531Z,19.5
2018-01-04T02:19:21.344Z,19.66
2018-01-04T02:19:49.889Z,19.59
2018-01-04T02:20:46.788Z,19.59
2018-01-04T02:21:14.741Z,19.61
2018-01-04T02:21:43.122Z,19.62
2018-01-04T02:22:11.973Z,19.56
2018-01-04T02:22:41.327Z,19.63
2018-01-04T02:23:09.791Z,19.58
2018-01-04T02:23:38.228Z,19.61
2018-01-04T02:24:06.658Z,19.55
2018-01-04T02:25:03.735Z,19.55
2018-01-04T02:25:32.612Z,19.59
2018-01-04T02:26:01.072Z,19.54
2018-01-04T02:27:13.451Z,19.51
2018-01-04T02:27:57.266Z,19.46
2018-01-04T02:30:07.457Z,19.37
2018-01-04T02:30:36.224Z,19.55
2018-01-04T02:31:47.998Z,19.48
2018-01-04T02:32:16.435Z,19.61
2018-01-04T02:32:59.936Z,19.56
2018-01-04T02:34:13.463Z,19.54
2018-01-04T02:34:56.009Z,19.5
2018-01-04T02:36:22.922Z,19.46
2018-01-04T02:39:16.411Z,19.59
2018-01-04T02:39:44.650Z,19.55
2018-01-04T02:40:13.252Z,19.59
2018-01-04T02:40:41.255Z,19.69
2018-01-04T02:41:09.615Z,19.62
2018-01-04T02:43:06.411Z,19.61
2018-01-04T02:44:33.743Z,19.69
2018-01-04T02:45:16.202Z,19.71
2018-01-04T02:46:46.061Z,19.76
2018-01-04T02:47:34.770Z,19.69
2018-01-04T02:48:05.139Z,19.76
2018-01-04T02:49:02.196Z,19.73
2018-01-04T02:49:31.503Z,19.74
2018-01-04T02:49:59.432Z,19.8
2018-01-04T02:50:27.454Z,19.66
2018-01-04T02:51:11.213Z,19.78
2018-01-04T02:51:39.233Z,19.78
2018-01-04T02:52:08.832Z,19.74
2018-01-04T02:52:37.289Z,19.77
2018-01-04T02:53:06.400Z,19.78
2018-01-04T02:54:38.410Z,19.78
2018-01-04T02:55:07.990Z,19.73
2018-01-04T02:55:36.819Z,19.73
2018-01-04T02:56:20.662Z,19.63
2018-01-04T02:56:49.763Z,19.61
2018-01-04T02:57:19.121Z,19.65
2018-01-04T02:58:02.033Z,19.62
2018-01-04T02:58:31.012Z,19.69
2018-01-04T02:59:14.076Z,19.69
2018-01-04T03:00:07.979Z,19.63
2018-01-04T03:00:36.809Z,19.65
2018-01-04T03:01:20.928Z,19.54
2018-01-04T03:03:20.722Z,19.61
2018-01-04T03:03:49.333Z,19.59
2018-01-04T03:04:17.769Z,19.59
2018-01-04T03:04:46.202Z,19.58
2018-01-04T03:05:30.977Z,19.46
2018-01-04T03:07:54.954Z,19.51
2018-01-04T03:08:23.398Z,19.48
2018-01-04T03:09:21.895Z,19.55
2018-01-04T03:10:06.811Z,19.61
2018-01-04T03:10:34.810Z,19.58
2018-01-04T03:11:02.826Z,19.46
2018-01-04T03:11:31.043Z,19.48
2018-01-04T03:11:59.062Z,19.55
2018-01-04T03:12:31.621Z,19.44
2018-01-04T03:13:15.377Z,19.46
2018-01-04T03:13:45.660Z,19.44
2018-01-04T03:14:14.487Z,19.44
2018-01-04T03:14:57.049Z,19.5
2018-01-04T03:15:44.498Z,19.48
2018-01-04T03:17:11.401Z,19.43
2018-01-04T03:19:21.595Z,19.39
2018-01-04T03:19:51.605Z,19.31
2018-01-04T03:20:19.617Z,19.32
2018-01-04T03:20:47.551Z,19.29
2018-01-04T03:21:15.571Z,19.23
2018-01-04T03:21:44.091Z,19.41
2018-01-04T03:22:12.438Z,19.37
2018-01-04T03:23:53.249Z,19.31
2018-01-04T03:24:21.268Z,19.29
2018-01-04T03:24:49.548Z,19.39
2018-01-04T03:26:00.757Z,19.28
2018-01-04T03:26:29.233Z,19.21
2018-01-04T03:26:57.256Z,19.29
2018-01-04T03:27:25.493Z,19.36
2018-01-04T03:27:53.702Z,19.28
2018-01-04T03:28:22.654Z,19.36
2018-01-04T03:28:50.573Z,19.32
2018-01-04T03:29:33.527Z,19.33
2018-01-04T03:30:02.769Z,19.22
2018-01-04T03:30:31.290Z,19.28
2018-01-04T03:30:59.948Z,19.32
2018-01-04T03:31:42.920Z,19.29
2018-01-04T03:32:54.935Z,19.22
2018-01-04T03:33:38.425Z,19.29
2018-01-04T03:34:36.014Z,19.29
2018-01-04T03:35:34.386Z,19.29
2018-01-04T03:37:28.439Z,19.26
2018-01-04T03:37:56.484Z,19.22
2018-01-04T03:38:26.677Z,19.26
2018-01-04T03:38:55.129Z,19.23
2018-01-04T03:39:23.162Z,19.28
2018-01-04T03:39:52.520Z,19.28
2018-01-04T03:40:21.538Z,19.31
2018-01-04T03:40:49.977Z,19.16
2018-01-04T03:41:17.987Z,19.21
2018-01-04T03:42:00.537Z,19.18
2018-01-04T03:42:43.090Z,19.26
2018-01-04T03:43:16.667Z,19.31
2018-01-04T03:43:46.361Z,19.29
2018-01-04T03:44:28.904Z,19.23
2018-01-04T03:45:25.966Z,19.23
2018-01-04T03:46:09.714Z,19.22
2018-01-04T03:46:37.860Z,19.28
2018-01-04T03:47:20.841Z,19.26
2018-01-04T03:48:20.798Z,19.25
2018-01-04T03:49:04.489Z,19.21
2018-01-04T03:49:33.842Z,19.14
2018-01-04T03:50:22.297Z,19.22
2018-01-04T03:51:05.274Z,19.14
2018-01-04T03:51:34.069Z,19.11
2018-01-04T03:52:02.512Z,19.11
2018-01-04T03:52:30.924Z,19.14
2018-01-04T03:53:13.497Z,19.19
2018-01-04T03:53:41.937Z,19.14
2018-01-04T03:54:10.368Z,19.19
2018-01-04T03:54:38.806Z,19.13
2018-01-04T03:55:35.863Z,19.08
2018-01-04T03:56:04.298Z,19.1
2018-01-04T03:56:32.728Z,19.04
2018-01-04T03:57:30.585Z,19.07
2018-01-04T03:57:59.840Z,19
2018-01-04T03:58:27.882Z,19.13
2018-01-04T03:58:57.037Z,19.14
2018-01-04T03:59:25.536Z,19.13
2018-01-04T03:59:54.367Z,19.13
2018-01-04T04:01:35.582Z,19.14
2018-01-04T04:02:49.364Z,19.11
2018-01-04T04:03:31.894Z,19.26
2018-01-04T04:04:43.723Z,19.19
2018-01-04T04:05:12.141Z,19.21
2018-01-04T04:05:40.697Z,19.36
2018-01-04T04:06:10.100Z,19.28
2018-01-04T04:07:21.572Z,19.32
2018-01-04T04:08:19.427Z,19.31
2018-01-04T04:08:47.459Z,19.26
2018-01-04T04:09:16.330Z,19.31
2018-01-04T04:09:44.332Z,19.26
2018-01-04T04:10:13.992Z,19.28
2018-01-04T04:10:42.439Z,19.29
2018-01-04T04:11:11.503Z,19.29
2018-01-04T04:11:39.450Z,19.31
2018-01-04T04:12:07.486Z,19.16
2018-01-04T04:12:35.660Z,19.16
2018-01-04T04:13:19.653Z,19.1
2018-01-04T04:13:48.012Z,19.18
2018-01-04T04:15:44.252Z,19
2018-01-04T04:16:12.491Z,18.99
2018-01-04T04:16:55.143Z,19.06
2018-01-04T04:17:24.300Z,19.02
2018-01-04T04:18:26.870Z,18.9
2018-01-04T04:19:09.163Z,19
2018-01-04T04:19:37.192Z,19.04
2018-01-04T04:20:10.412Z,18.99
2018-01-04T04:20:53.757Z,19.02
2018-01-04T04:21:39.290Z,18.99
2018-01-04T04:22:08.116Z,19.02
2018-01-04T04:22:42.284Z,19.02
2018-01-04T04:23:54.664Z,19.06
2018-01-04T04:24:23.237Z,18.95
2018-01-04T04:25:36.715Z,19.02
2018-01-04T04:26:06.066Z,19.04
2018-01-04T04:26:35.786Z,18.98
2018-01-04T04:27:19.539Z,19.02
2018-01-04T04:27:49.618Z,19.02
2018-01-04T04:28:48.238Z,19
2018-01-04T04:30:43.681Z,18.99
2018-01-04T04:31:11.988Z,18.98
2018-01-04T04:31:40.426Z,19.02
2018-01-04T04:32:08.893Z,19.02
2018-01-04T04:33:20.482Z,18.98
2018-01-04T04:33:49.497Z,19
2018-01-04T04:34:18.854Z,18.99
2018-01-04T04:34:48.830Z,19.02
2018-01-04T04:36:15.914Z,19.07
2018-01-04T04:37:27.529Z,19.1
2018-01-04T04:38:25.020Z,18.94
2018-01-04T04:39:15.696Z,19.08
2018-01-04T04:40:44.597Z,19.02
2018-01-04T04:41:27.800Z,18.99
2018-01-04T04:42:25.408Z,19.02
2018-01-04T04:43:38.225Z,18.99
2018-01-04T04:44:35.205Z,18.9
2018-01-04T04:45:17.753Z,18.85
2018-01-04T04:47:13.551Z,18.85
2018-01-04T04:49:23.901Z,18.88
2018-01-04T04:55:39.645Z,18.87
2018-01-04T05:03:06.491Z,18.75
2018-01-04T05:04:19.248Z,18.76
2018-01-04T05:05:16.719Z,18.82
2018-01-04T05:07:44.874Z,18.75
2018-01-04T05:08:14.790Z,18.8
2018-01-04T05:10:09.876Z,18.78
2018-01-04T05:10:55.344Z,18.73
2018-01-04T05:11:23.423Z,18.75
2018-01-04T05:11:53.032Z,18.76
2018-01-04T05:12:22.260Z,18.81
2018-01-04T05:12:52.284Z,18.8
2018-01-04T05:13:20.828Z,18.8
2018-01-04T05:13:49.554Z,18.72
2018-01-04T05:14:19.219Z,18.72
2018-01-04T05:14:47.478Z,18.69
2018-01-04T05:15:16.818Z,18.66
2018-01-04T05:15:46.104Z,18.66
2018-01-04T05:16:14.487Z,18.69
2018-01-04T05:16:43.301Z,18.7
2018-01-04T05:17:11.746Z,18.66
2018-01-04T05:17:42.166Z,18.63
2018-01-04T05:18:11.378Z,18.67
2018-01-04T05:18:39.825Z,18.63
2018-01-04T05:20:06.477Z,18.69
2018-01-04T05:20:35.668Z,18.55
2018-01-04T05:21:18.287Z,18.62
2018-01-04T05:24:10.527Z,18.57
2018-01-04T05:25:51.995Z,18.54
2018-01-04T05:26:38.297Z,18.63
2018-01-04T05:28:18.205Z,18.63
2018-01-04T05:28:46.662Z,18.63
2018-01-04T05:29:58.396Z,18.54
2018-01-04T05:30:41.671Z,18.55
2018-01-04T05:31:09.706Z,18.6
2018-01-04T05:31:52.242Z,18.52
2018-01-04T05:32:21.842Z,18.54
2018-01-04T05:33:06.226Z,18.51
2018-01-04T05:34:03.300Z,18.55
2018-01-04T05:34:47.383Z,18.5
2018-01-04T05:35:44.466Z,18.5
2018-01-04T05:36:12.511Z,18.52
2018-01-04T05:36:58.328Z,18.51
2018-01-04T05:38:41.732Z,18.52
2018-01-04T05:39:10.958Z,18.5
2018-01-04T05:39:40.162Z,18.54
2018-01-04T05:40:24.252Z,18.5
2018-01-04T05:40:52.559Z,18.52
2018-01-04T05:42:04.105Z,18.42
2018-01-04T05:42:32.962Z,18.47
2018-01-04T05:43:01.761Z,18.51
2018-01-04T05:43:46.522Z,18.42
2018-01-04T05:44:15.821Z,18.44
2018-01-04T05:44:44.448Z,18.42
2018-01-04T05:45:12.487Z,18.42
2018-01-04T05:45:56.614Z,18.42
2018-01-04T05:47:22.366Z,18.36
2018-01-04T05:47:51.316Z,18.39
2018-01-04T05:48:33.896Z,18.42
2018-01-04T05:49:02.359Z,18.39
2018-01-04T05:49:44.880Z,18.44
2018-01-04T05:50:13.974Z,18.35
2018-01-04T05:50:42.210Z,18.42
2018-01-04T05:51:11.994Z,18.37
2018-01-04T05:51:40.819Z,18.42
2018-01-04T05:52:23.707Z,18.39
2018-01-04T05:52:52.073Z,18.39
2018-01-04T05:53:22.442Z,18.41
2018-01-04T05:53:52.036Z,18.42
2018-01-04T05:54:25.521Z,18.35
2018-01-04T05:55:08.624Z,18.3
2018-01-04T05:55:52.131Z,18.37
2018-01-04T05:56:20.364Z,18.35
2018-01-04T05:56:49.137Z,18.35
2018-01-04T05:57:17.065Z,18.35
2018-01-04T05:57:45.769Z,18.36
2018-01-04T05:58:42.847Z,18.41
2018-01-04T05:59:26.585Z,18.32
2018-01-04T06:00:29.158Z,18.32
2018-01-04T06:00:57.080Z,18.36
2018-01-04T06:01:31.449Z,18.42
2018-01-04T06:02:13.903Z,18.35
2018-01-04T06:02:43.047Z,18.42
2018-01-04T06:03:11.068Z,18.33
2018-01-04T06:03:39.393Z,18.33
2018-01-04T06:04:07.911Z,18.41
2018-01-04T06:04:36.371Z,18.42
2018-01-04T06:05:19.720Z,18.36
2018-01-04T06:06:20.207Z,18.44
2018-01-04T06:06:49.222Z,18.42
2018-01-04T06:07:18.233Z,18.37
2018-01-04T06:08:02.106Z,18.36
2018-01-04T06:08:30.483Z,18.36
2018-01-04T06:09:00.002Z,18.42
2018-01-04T06:10:26.935Z,18.37
2018-01-04T06:10:57.183Z,18.26
2018-01-04T06:11:25.975Z,18.29
2018-01-04T06:11:57.845Z,18.3
2018-01-04T06:12:26.291Z,18.18
2018-01-04T06:12:56.502Z,18.32
2018-01-04T06:13:25.266Z,18.2
2018-01-04T06:13:54.059Z,18.25
2018-01-04T06:14:24.090Z,18.18
2018-01-04T06:15:07.935Z,18.26
2018-01-04T06:15:50.399Z,18.21
2018-01-04T06:16:19.633Z,18.27
2018-01-04T06:17:03.922Z,18.27
2018-01-04T06:17:32.696Z,18.26
2018-01-04T06:18:01.521Z,18.27
2018-01-04T06:18:30.364Z,18.3
2018-01-04T06:19:04.523Z,18.37
2018-01-04T06:19:32.534Z,18.3
2018-01-04T06:20:01.307Z,18.29
2018-01-04T06:20:59.177Z,18.29
2018-01-04T06:21:30.358Z,18.3
2018-01-04T06:22:27.571Z,18.35
2018-01-04T06:23:10.897Z,18.29
2018-01-04T06:23:54.737Z,18.3
2018-01-04T06:24:24.045Z,18.25
2018-01-04T06:24:52.490Z,18.25
2018-01-04T06:25:20.922Z,18.25
2018-01-04T06:26:04.123Z,18.29
2018-01-04T06:26:32.390Z,18.25
2018-01-04T06:28:56.216Z,18.2
2018-01-04T06:29:39.682Z,18.18
2018-01-04T06:30:22.212Z,18.3
2018-01-04T06:30:52.234Z,18.18
2018-01-04T06:31:21.084Z,18.25
2018-01-04T06:31:49.958Z,18.21
2018-01-04T06:32:18.760Z,18.23
2018-01-04T06:32:47.193Z,18.26
2018-01-04T06:33:15.227Z,18.14
2018-01-04T06:33:43.652Z,18.18
2018-01-04T06:34:12.677Z,18.15
2018-01-04T06:34:41.536Z,18.18
2018-01-04T06:35:09.543Z,18.2
2018-01-04T06:35:38.224Z,18.18
2018-01-04T06:36:08.299Z,18.18
2018-01-04T06:36:52.156Z,18.27
2018-01-04T06:37:24.630Z,18.23
2018-01-04T06:38:21.716Z,18.2
2018-01-04T06:39:04.271Z,18.26
2018-01-04T06:39:33.160Z,18.23
2018-01-04T06:40:01.179Z,18.3
2018-01-04T06:40:29.680Z,18.33
2018-01-04T06:41:00.120Z,18.2
2018-01-04T06:41:28.874Z,18.2
2018-01-04T06:41:56.877Z,18.23
2018-01-04T06:42:24.937Z,18.26
2018-01-04T06:42:52.940Z,18.27
2018-01-04T06:43:22.027Z,18.32
2018-01-04T06:43:51.833Z,18.3
2018-01-04T06:44:50.479Z,18.25
2018-01-04T06:45:48.318Z,18.18
2018-01-04T06:46:17.141Z,18.33
2018-01-04T06:46:45.387Z,18.32
2018-01-04T06:47:13.813Z,18.2
2018-01-04T06:49:23.190Z,18.21
2018-01-04T06:49:51.960Z,18.2
2018-01-04T06:50:20.775Z,18.21
2018-01-04T06:50:49.578Z,18.23
2018-01-04T06:51:18.659Z,18.25
2018-01-04T06:51:47.108Z,18.32
2018-01-04T06:52:29.662Z,18.2
2018-01-04T06:52:59.012Z,18.18
2018-01-04T06:53:27.446Z,18.25
2018-01-04T06:53:55.462Z,18.2
2018-01-04T06:54:24.325Z,18.2
2018-01-04T06:55:36.623Z,18.17
2018-01-04T06:56:19.076Z,18.23
2018-01-04T06:56:47.896Z,18.18
2018-01-04T06:57:15.932Z,18.2
2018-01-04T06:57:44.589Z,18.17
2018-01-04T06:58:41.941Z,18.21
2018-01-04T07:00:04.577Z,18.18
2018-01-04T07:00:33.809Z,18.15
2018-01-04T07:01:31.577Z,18.2
2018-01-04T07:02:01.048Z,18.21
2018-01-04T07:02:58.365Z,18.18
2018-01-04T07:03:26.612Z,18.2
2018-01-04T07:03:56.578Z,18.21
2018-01-04T07:05:07.932Z,18.23
2018-01-04T07:05:35.957Z,18.18
2018-01-04T07:06:04.945Z,18.18
2018-01-04T07:06:32.856Z,18.25
2018-01-04T07:07:44.797Z,18.26
2018-01-04T07:08:12.951Z,18.25
2018-01-04T07:08:56.048Z,18.23
2018-01-04T07:09:24.574Z,18.21
2018-01-04T07:09:53.669Z,18.23
2018-01-04T07:10:22.194Z,18.18
2018-01-04T07:10:50.249Z,18.14
2018-01-04T07:11:18.781Z,18.27
2018-01-04T07:11:46.605Z,18.2
2018-01-04T07:12:15.446Z,18.35
2018-01-04T07:12:44.344Z,18.14
2018-01-04T07:13:27.741Z,18.3
2018-01-04T07:13:56.525Z,18.17
2018-01-04T07:14:24.569Z,18.17
2018-01-04T07:14:52.562Z,18.25
2018-01-04T07:15:20.931Z,18.25
2018-01-04T07:15:49.488Z,18.2
2018-01-04T07:16:17.819Z,18.23
2018-01-04T07:16:47.853Z,18.2
2018-01-04T07:17:31.209Z,18.17
2018-01-04T07:17:59.671Z,18.21
2018-01-04T07:18:29.849Z,18.18
2018-01-04T07:18:57.851Z,18.26
2018-01-04T07:19:28.036Z,18.25
2018-01-04T07:21:24.056Z,18.26
2018-01-04T07:21:52.510Z,18.26
2018-01-04T07:23:33.728Z,18.23
2018-01-04T07:24:02.594Z,18.26
2018-01-04T07:24:33.031Z,18.15
2018-01-04T07:25:01.936Z,18.18
2018-01-04T07:26:28.942Z,18.15
2018-01-04T07:27:41.231Z,18.08
2018-01-04T07:28:09.277Z,18.18
2018-01-04T07:28:37.937Z,18.25
2018-01-04T07:29:05.979Z,18.21
2018-01-04T07:29:35.931Z,18.21
2018-01-04T07:30:48.873Z,18.15
2018-01-04T07:31:18.069Z,18.17
2018-01-04T07:31:46.541Z,18.2
2018-01-04T07:32:15.261Z,18.26
2018-01-04T07:32:58.455Z,18.21
2018-01-04T07:33:28.244Z,18.15
2018-01-04T07:33:56.541Z,18.17
2018-01-04T07:34:25.992Z,18.17
2018-01-04T07:35:09.765Z,18.26
2018-01-04T07:36:06.829Z,18.25
2018-01-04T07:36:35.330Z,18.14
2018-01-04T07:37:03.481Z,18.27
2018-01-04T07:37:34.825Z,18.18
2018-01-04T07:38:19.383Z,18.18
2018-01-04T07:39:01.937Z,18.18
2018-01-04T07:39:45.428Z,18.18
2018-01-04T07:40:42.458Z,18.15
2018-01-04T07:41:12.569Z,18.12
2018-01-04T07:41:40.504Z,18.18
2018-01-04T07:42:10.290Z,18.08
2018-01-04T07:42:41.036Z,18.21
2018-01-04T07:43:09.791Z,18.17
2018-01-04T07:43:39.474Z,18.17
2018-01-04T07:44:07.547Z,18.21
2018-01-04T07:44:51.230Z,18.21
2018-01-04T07:45:33.790Z,18.18
2018-01-04T07:46:01.815Z,18.21
2018-01-04T07:47:13.281Z,18.2
2018-01-04T07:47:56.191Z,18.05
2018-01-04T07:48:40.117Z,18.2
2018-01-04T07:49:08.520Z,18.1
2018-01-04T07:49:38.259Z,18.05
2018-01-04T07:50:07.509Z,18.08
2018-01-04T07:50:39.753Z,18.05
2018-01-04T07:52:45.858Z,18.1
2018-01-04T07:53:29.906Z,18.11
2018-01-04T07:54:27.004Z,18.08
2018-01-04T07:55:11.512Z,18.1
2018-01-04T07:55:39.861Z,18.02
2018-01-04T07:58:18.227Z,18.05
2018-01-04T07:59:31.832Z,18.03
2018-01-04T08:00:01.286Z,18.1
2018-01-04T08:00:58.365Z,18.03
2018-01-04T08:01:26.330Z,18.14
2018-01-04T08:02:10.147Z,18.1
2018-01-04T08:02:53.404Z,18.08
2018-01-04T08:03:51.677Z,18.07
2018-01-04T08:04:34.909Z,18.08
2018-01-04T08:05:17.697Z,18.15
2018-01-04T08:05:46.749Z,18.15
2018-01-04T08:06:29.721Z,18.17
2018-01-04T08:07:13.439Z,18.21
2018-01-04T08:07:42.998Z,18.15
2018-01-04T08:08:12.706Z,18.15
2018-01-04T08:08:42.027Z,18.17
2018-01-04T08:09:10.529Z,18.18
2018-01-04T08:09:53.848Z,18.17
2018-01-04T08:10:23.343Z,18.23
2018-01-04T08:11:49.784Z,18.17
2018-01-04T08:12:19.074Z,18.2
2018-01-04T08:12:47.839Z,18.17
2018-01-04T08:13:16.352Z,18.18
2018-01-04T08:13:45.562Z,18.18
2018-01-04T08:14:28.067Z,18.15
2018-01-04T08:14:58.416Z,18.18
2018-01-04T08:15:26.467Z,18.23
2018-01-04T08:15:55.375Z,18.2
2018-01-04T08:16:23.811Z,18.2
2018-01-04T08:17:06.716Z,18.14
2018-01-04T08:17:35.363Z,18.2
2018-01-04T08:18:03.600Z,18.21
2018-01-04T08:18:46.349Z,18.17
2018-01-04T08:20:12.768Z,18.25
2018-01-04T08:20:42.245Z,18.29
2018-01-04T08:21:25.548Z,18.27
2018-01-04T08:21:54.861Z,18.2
2018-01-04T08:22:23.556Z,18.2
2018-01-04T08:22:53.587Z,18.25
2018-01-04T08:24:04.288Z,18.23
2018-01-04T08:24:46.856Z,18.21
2018-01-04T08:25:30.246Z,18.21
2018-01-04T08:26:28.174Z,18.18
2018-01-04T08:27:25.239Z,18.15
2018-01-04T08:28:08.923Z,18.27
2018-01-04T08:28:52.210Z,18.21
2018-01-04T08:29:49.285Z,18.17
2018-01-04T08:30:17.319Z,18.2
2018-01-04T08:31:00.455Z,18.23
2018-01-04T08:31:28.503Z,18.26
2018-01-04T08:31:57.778Z,18.23
2018-01-04T08:32:27.666Z,18.15
2018-01-04T08:32:55.732Z,18.23
2018-01-04T08:33:23.775Z,18.25
2018-01-04T08:33:52.802Z,18.23
2018-01-04T08:34:22.443Z,18.23
2018-01-04T08:35:21.124Z,18.18
2018-01-04T08:35:50.489Z,18.21
2018-01-04T08:36:19.224Z,18.29
2018-01-04T08:37:31.239Z,18.21
2018-01-04T08:38:13.608Z,18.25
2018-01-04T08:38:56.436Z,18.27
2018-01-04T08:39:40.130Z,18.26
2018-01-04T08:40:08.766Z,18.36
2018-01-04T08:40:36.806Z,18.32
2018-01-04T08:41:05.011Z,18.29
2018-01-04T08:41:34.088Z,18.3
2018-01-04T08:42:04.526Z,18.37
2018-01-04T08:42:32.514Z,18.39
2018-01-04T08:43:00.963Z,18.37
2018-01-04T08:43:31.246Z,18.44
2018-01-04T08:44:13.775Z,18.41
2018-01-04T08:44:42.325Z,18.41
2018-01-04T08:45:11.359Z,18.42
2018-01-04T08:45:40.898Z,18.41
2018-01-04T08:46:09.399Z,18.39
2018-01-04T08:46:39.122Z,18.48
2018-01-04T08:47:22.525Z,18.54
2018-01-04T08:47:51.306Z,18.62
2018-01-04T08:48:19.882Z,18.55
2018-01-04T08:49:02.579Z,18.6
2018-01-04T08:50:17.076Z,18.87
2018-01-04T08:51:01.577Z,19
2018-01-04T08:51:30.500Z,19
2018-01-04T08:52:42.138Z,19.37
2018-01-04T08:53:26.116Z,19.4
2018-01-04T08:54:08.699Z,19.46
2018-01-04T08:54:38.624Z,19.48
2018-01-04T08:55:36.496Z,19.65
2018-01-04T08:56:04.408Z,19.61
2018-01-04T08:56:33.471Z,19.66
2018-01-04T08:57:16.869Z,19.69
2018-01-04T08:58:14.513Z,19.69
2018-01-04T08:58:57.510Z,19.81
2018-01-04T08:59:40.564Z,19.84
2018-01-04T09:00:23.071Z,19.92
2018-01-04T09:00:51.550Z,19.92
2018-01-04T09:02:33.714Z,20.08
2018-01-04T09:03:31.217Z,20.05
2018-01-04T09:03:59.930Z,19.96
2018-01-04T09:05:40.703Z,20.03
2018-01-04T09:06:08.768Z,20.11
2018-01-04T09:07:49.896Z,20.26